Time;durP1;ratioP1;P1;durP2;ratioP2;P2;SDS_P1;SDS_P2;PMS_P1;PMS_P2;Temp;Humidity;BMP_temperature;BMP_pressure;BME280_temperature;BME280_humidity;BME280_pressure;Samples;Min_cycle;Max_cycle;Signal;HPM_P1;HPM_P2
2023/11/23 00:00:19;;;;;;;10.83;5.17;;;;;;;4.21;100.00;97249.72;5036439;28;20282;-70
2023/11/23 00:02:45;;;;;;;13.63;5.30;;;;;;;4.31;100.00;97241.09;5037416;28;20211;-69
2023/11/23 00:05:12;;;;;;;14.43;5.93;;;;;;;4.19;100.00;97249.03;5037142;28;20225;-69
2023/11/23 00:07:39;;;;;;;13.67;5.67;;;;;;;4.30;100.00;97244.69;5038410;28;20211;-70
2023/11/23 00:10:07;;;;;;;12.50;5.33;;;;;;;4.11;100.00;97245.31;5036892;28;21161;-70
2023/11/23 00:12:33;;;;;;;12.83;5.40;;;;;;;4.05;100.00;97236.19;5037057;28;20208;-70
2023/11/23 00:15:00;;;;;;;8.60;4.53;;;;;;;3.65;100.00;97242.66;5038317;28;20426;-69
2023/11/23 00:17:27;;;;;;;11.93;4.83;;;;;;;3.28;100.00;97239.34;5036824;28;20316;-70
2023/11/23 00:19:54;;;;;;;11.63;5.23;;;;;;;3.73;100.00;97242.09;5037468;28;20314;-71
2023/11/23 00:22:21;;;;;;;10.87;6.00;;;;;;;3.67;100.00;97264.19;5037972;28;20672;-70
2023/11/23 00:24:49;;;;;;;11.37;5.17;;;;;;;3.63;100.00;97278.41;5037418;28;20742;-69
2023/11/23 00:27:16;;;;;;;12.53;5.80;;;;;;;3.61;100.00;97289.06;5036706;28;20858;-71
2023/11/23 00:29:45;;;;;;;14.27;6.03;;;;;;;3.59;100.00;97293.53;5038109;28;20194;-70
2023/11/23 00:32:12;;;;;;;12.10;5.33;;;;;;;3.64;100.00;97294.88;5037113;28;20696;-69
2023/11/23 00:34:39;;;;;;;11.13;5.03;;;;;;;3.59;100.00;97301.34;5037556;28;20218;-70
2023/11/23 00:37:07;;;;;;;12.83;3.97;;;;;;;3.52;100.00;97315.75;5037360;28;20207;-70
2023/11/23 00:39:33;;;;;;;8.43;4.10;;;;;;;3.46;100.00;97306.59;5037204;28;20231;-68
2023/11/23 00:42:01;;;;;;;10.60;5.07;;;;;;;3.62;100.00;97306.38;5037053;28;20369;-71
2023/11/23 00:44:28;;;;;;;9.60;4.73;;;;;;;3.62;100.00;97314.19;5037418;28;20227;-68
2023/11/23 00:46:54;;;;;;;9.57;4.17;;;;;;;3.30;100.00;97311.22;5037288;28;20211;-68
2023/11/23 00:49:21;;;;;;;9.43;5.20;;;;;;;3.35;100.00;97303.09;5036660;28;21031;-68
2023/11/23 00:51:48;;;;;;;11.23;5.30;;;;;;;3.43;100.00;97296.41;5036948;28;20768;-68
2023/11/23 00:54:14;;;;;;;10.87;5.33;;;;;;;3.27;100.00;97294.97;5037090;28;20203;-68
2023/11/23 00:56:41;;;;;;;10.53;5.33;;;;;;;3.39;100.00;97291.53;5036742;28;20211;-68
2023/11/23 00:59:08;;;;;;;11.47;4.73;;;;;;;3.58;100.00;97284.91;5037244;28;20229;-68
2023/11/23 01:01:35;;;;;;;10.50;5.13;;;;;;;3.59;100.00;97270.06;5037098;28;20789;-68
2023/11/23 01:04:01;;;;;;;10.53;5.10;;;;;;;3.61;100.00;97270.81;5036756;28;20201;-68
2023/11/23 01:06:28;;;;;;;8.90;4.53;;;;;;;3.66;100.00;97283.38;5036011;28;20238;-68
2023/11/23 01:08:55;;;;;;;11.07;5.30;;;;;;;3.63;100.00;97282.78;5037788;28;20213;-68
2023/11/23 01:11:23;;;;;;;9.57;4.97;;;;;;;3.57;100.00;97277.19;5035848;28;20207;-68
2023/11/23 01:13:50;;;;;;;11.87;5.10;;;;;;;3.58;100.00;97268.41;5036416;28;20253;-68
2023/11/23 01:16:18;;;;;;;9.30;4.23;;;;;;;3.52;100.00;97281.91;5037338;28;20231;-68
2023/11/23 01:18:44;;;;;;;9.87;5.53;;;;;;;3.45;100.00;97284.09;5037195;28;20696;-68
2023/11/23 01:21:11;;;;;;;9.30;4.43;;;;;;;3.41;100.00;97274.00;5035895;28;20209;-68
2023/11/23 01:23:37;;;;;;;11.90;5.27;;;;;;;3.48;100.00;97268.25;5037075;28;20211;-68
2023/11/23 01:26:04;;;;;;;11.30;5.50;;;;;;;3.52;100.00;97271.47;5036597;28;20237;-68
2023/11/23 01:28:30;;;;;;;10.40;4.80;;;;;;;3.42;100.00;97273.06;5036263;28;20218;-68
2023/11/23 01:30:57;;;;;;;9.20;4.80;;;;;;;3.48;100.00;97288.28;5037134;28;20981;-68
2023/11/23 01:33:24;;;;;;;10.43;5.30;;;;;;;3.62;100.00;97286.34;5036576;28;20230;-68
2023/11/23 01:35:51;;;;;;;10.13;4.67;;;;;;;3.37;100.00;97280.38;5035781;28;20221;-68
2023/11/23 01:38:17;;;;;;;10.33;4.90;;;;;;;3.49;100.00;97264.69;5036931;28;20210;-68
2023/11/23 01:40:44;;;;;;;9.47;4.30;;;;;;;3.51;100.00;97277.63;5036919;28;20234;-68
2023/11/23 01:43:10;;;;;;;7.77;4.77;;;;;;;3.37;100.00;97282.97;5036062;28;20219;-68
2023/11/23 01:45:37;;;;;;;10.73;5.60;;;;;;;3.42;100.00;97278.28;5036080;28;21151;-68
2023/11/23 01:48:04;;;;;;;11.27;4.90;;;;;;;3.50;100.00;97283.75;5036830;28;20283;-68
2023/11/23 01:50:33;;;;;;;9.40;5.07;;;;;;;3.74;100.00;97270.66;5036329;28;20230;-68
2023/11/23 01:53:01;;;;;;;10.93;4.83;;;;;;;3.71;100.00;97263.03;5036068;28;20632;-68
2023/11/23 01:55:28;;;;;;;8.77;4.47;;;;;;;3.75;100.00;97251.44;5035678;28;20255;-68
2023/11/23 01:57:57;;;;;;;12.07;4.70;;;;;;;3.90;100.00;97254.72;5036445;28;20669;-68
2023/11/23 02:00:25;;;;;;;9.30;4.67;;;;;;;3.91;100.00;97254.59;5035955;28;20222;-68
2023/11/23 02:02:51;;;;;;;11.67;5.07;;;;;;;3.80;100.00;97257.16;5036173;28;20203;-68
2023/11/23 02:05:18;;;;;;;9.40;4.80;;;;;;;3.85;100.00;97251.63;5035005;28;20239;-68
2023/11/23 02:07:45;;;;;;;12.80;5.40;;;;;;;3.88;100.00;97257.44;5036457;28;20290;-68
2023/11/23 02:10:12;;;;;;;12.70;5.40;;;;;;;3.71;100.00;97239.56;5036305;28;20203;-68
2023/11/23 02:12:39;;;;;;;11.17;4.83;;;;;;;3.76;100.00;97237.47;5035991;28;20200;-68
2023/11/23 02:15:07;;;;;;;11.67;5.43;;;;;;;3.65;100.00;97242.66;5036203;28;20220;-68
2023/11/23 02:17:34;;;;;;;12.80;5.20;;;;;;;3.64;100.00;97238.38;5035928;28;20207;-68
2023/11/23 02:20:02;;;;;;;17.80;5.93;;;;;;;3.60;100.00;97250.91;5036231;28;20226;-69
2023/11/23 02:22:29;;;;;;;15.53;5.80;;;;;;;3.44;100.00;97245.13;5035371;28;20218;-68
2023/11/23 02:24:57;;;;;;;17.67;5.97;;;;;;;3.60;100.00;97236.09;5036282;28;20231;-68
2023/11/23 02:27:23;;;;;;;12.37;5.03;;;;;;;3.45;100.00;97265.88;5034887;28;20203;-68
2023/11/23 02:29:50;;;;;;;12.60;5.23;;;;;;;3.41;100.00;97281.81;5035783;28;20658;-68
2023/11/23 02:32:17;;;;;;;9.80;4.70;;;;;;;3.31;100.00;97283.41;5036513;28;20207;-68
2023/11/23 02:34:43;;;;;;;11.47;4.97;;;;;;;3.37;100.00;97285.56;5035971;28;20224;-68
2023/11/23 02:37:10;;;;;;;9.07;4.27;;;;;;;3.41;100.00;97266.19;5035721;28;20210;-68
2023/11/23 02:39:37;;;;;;;10.07;5.00;;;;;;;3.23;100.00;97270.94;5035504;28;20909;-68
2023/11/23 02:42:06;;;;;;;8.53;4.07;;;;;;;3.48;100.00;97267.44;5035748;28;20227;-68
2023/11/23 02:44:32;;;;;;;12.40;5.37;;;;;;;3.46;100.00;97258.88;5034729;28;20227;-68
2023/11/23 02:46:59;;;;;;;12.97;5.30;;;;;;;3.26;100.00;97260.28;5035657;28;20208;-68
2023/11/23 02:49:25;;;;;;;8.20;4.70;;;;;;;3.38;100.00;97256.00;5035180;28;20207;-68
2023/11/23 02:51:52;;;;;;;12.70;5.20;;;;;;;3.52;100.00;97271.47;5035818;28;20207;-68
2023/11/23 02:54:18;;;;;;;12.80;5.27;;;;;;;3.38;100.00;97262.03;5035423;28;20211;-68
2023/11/23 02:56:45;;;;;;;11.50;4.47;;;;;;;3.33;100.00;97271.09;5035241;28;20209;-68
2023/11/23 02:59:12;;;;;;;8.23;4.40;;;;;;;3.50;100.00;97262.91;5035497;28;20988;-69
2023/11/23 03:01:39;;;;;;;9.97;4.47;;;;;;;3.32;100.00;97259.00;5035739;28;20229;-69
2023/11/23 03:04:06;;;;;;;8.23;4.23;;;;;;;3.16;100.00;97238.44;5035465;28;20246;-68
2023/11/23 03:06:33;;;;;;;9.00;4.23;;;;;;;3.42;100.00;97249.63;5037518;28;20660;-68
2023/11/23 03:09:00;;;;;;;10.37;4.60;;;;;;;3.24;100.00;97236.13;5039080;28;21041;-68
2023/11/23 03:11:27;;;;;;;9.50;4.30;;;;;;;3.41;100.00;97237.53;5036080;28;20224;-68
2023/11/23 03:13:54;;;;;;;10.60;4.73;;;;;;;3.42;100.00;97234.81;5039609;28;20216;-68
2023/11/23 03:16:24;;;;;;;12.27;5.13;;;;;;;3.49;100.00;97237.78;5037892;28;20228;-68
2023/11/23 03:18:50;;;;;;;9.03;4.47;;;;;;;3.39;100.00;97235.03;5039173;28;20204;-68
2023/11/23 03:21:17;;;;;;;9.63;4.90;;;;;;;3.34;100.00;97237.13;5039017;28;20227;-68
2023/11/23 03:23:45;;;;;;;10.90;4.33;;;;;;;3.31;100.00;97228.69;5039005;28;20203;-68
2023/11/23 03:26:12;;;;;;;13.00;5.57;;;;;;;3.24;100.00;97230.09;5038559;28;20242;-68
2023/11/23 03:28:38;;;;;;;11.17;5.10;;;;;;;3.24;100.00;97237.91;5038678;28;20202;-68
2023/11/23 03:31:06;;;;;;;9.37;4.07;;;;;;;3.21;100.00;97240.72;5038772;28;20563;-68
2023/11/23 03:33:34;;;;;;;9.17;4.73;;;;;;;3.24;100.00;97254.34;5038887;28;20257;-69
2023/11/23 03:36:00;;;;;;;10.90;5.13;;;;;;;3.11;100.00;97250.13;5038160;28;20233;-68
2023/11/23 03:38:26;;;;;;;13.23;5.40;;;;;;;3.18;100.00;97261.75;5037666;28;20230;-68
2023/11/23 03:40:53;;;;;;;10.83;4.80;;;;;;;3.12;100.00;97264.81;5039225;28;20218;-68
2023/11/23 03:43:19;;;;;;;12.80;5.63;;;;;;;3.09;100.00;97270.22;5039227;28;20210;-68
2023/11/23 03:45:46;;;;;;;11.07;5.30;;;;;;;3.10;100.00;97282.31;5037714;28;20235;-68
2023/11/23 03:48:13;;;;;;;10.23;4.33;;;;;;;3.04;100.00;97277.50;5038505;28;20218;-68
2023/11/23 03:50:41;;;;;;;12.97;5.30;;;;;;;3.22;100.00;97286.66;5038222;28;20211;-68
2023/11/23 03:53:07;;;;;;;11.90;4.93;;;;;;;3.14;100.00;97296.78;5038498;28;20210;-68
2023/11/23 03:55:34;;;;;;;12.27;4.83;;;;;;;3.10;100.00;97288.31;5037397;28;20227;-68
2023/11/23 03:58:00;;;;;;;11.23;4.50;;;;;;;3.04;100.00;97293.13;5038595;28;20260;-69
2023/11/23 04:00:27;;;;;;;11.10;4.50;;;;;;;3.01;100.00;97293.34;5038326;28;20232;-68
2023/11/23 04:02:55;;;;;;;8.33;3.83;;;;;;;3.01;100.00;97308.16;5038152;28;21109;-69
2023/11/23 04:05:21;;;;;;;13.83;5.43;;;;;;;2.98;100.00;97306.59;5037178;28;20697;-68
2023/11/23 04:07:49;;;;;;;9.83;4.60;;;;;;;3.15;100.00;97316.66;5038533;28;20217;-68
2023/11/23 04:10:17;;;;;;;10.80;4.50;;;;;;;3.11;100.00;97310.00;5037873;28;20255;-68
2023/11/23 04:12:44;;;;;;;13.47;5.67;;;;;;;2.89;100.00;97303.78;5038040;28;20210;-68
2023/11/23 04:15:11;;;;;;;14.23;5.23;;;;;;;2.91;100.00;97291.50;5038349;28;20705;-68
2023/11/23 04:17:38;;;;;;;12.27;4.70;;;;;;;2.88;100.00;97295.13;5037126;28;20205;-69
2023/11/23 04:20:06;;;;;;;11.10;4.47;;;;;;;2.99;100.00;97279.59;5038245;28;20316;-68
2023/11/23 04:22:32;;;;;;;11.60;5.10;;;;;;;2.98;100.00;97277.97;5037801;28;20207;-68
2023/11/23 04:25:00;;;;;;;9.47;4.37;;;;;;;3.09;100.00;97278.03;5038071;28;20228;-68
2023/11/23 04:27:26;;;;;;;9.23;3.97;;;;;;;2.80;100.00;97284.44;5036594;28;20205;-68
2023/11/23 04:29:54;;;;;;;12.80;5.30;;;;;;;2.93;100.00;97280.03;5038135;28;20214;-69
2023/11/23 04:32:21;;;;;;;8.67;4.57;;;;;;;2.92;100.00;97272.34;5037451;28;20211;-69
2023/11/23 04:34:47;;;;;;;9.73;4.10;;;;;;;2.82;100.00;97273.91;5037836;28;20226;-68
2023/11/23 04:37:14;;;;;;;8.60;4.07;;;;;;;2.80;100.00;97278.38;5037323;28;20205;-68
2023/11/23 04:39:40;;;;;;;11.17;4.50;;;;;;;2.85;100.00;97271.94;5037350;28;20206;-68
2023/11/23 04:42:08;;;;;;;10.10;4.50;;;;;;;2.94;100.00;97276.50;5037462;28;20232;-68
2023/11/23 04:44:35;;;;;;;8.23;4.37;;;;;;;2.86;100.00;97270.97;5038110;28;20231;-69
2023/11/23 04:47:01;;;;;;;11.07;4.70;;;;;;;2.90;100.00;97269.00;5036774;28;20215;-69
2023/11/23 04:49:28;;;;;;;11.63;4.70;;;;;;;2.87;100.00;97262.22;5037112;28;20207;-68
2023/11/23 04:51:54;;;;;;;10.27;4.30;;;;;;;2.92;100.00;97257.53;5037766;28;20199;-67
2023/11/23 04:54:21;;;;;;;9.80;4.53;;;;;;;2.88;100.00;97245.69;5037673;28;20215;-69
2023/11/23 04:56:50;;;;;;;8.67;4.23;;;;;;;2.94;100.00;97234.84;5036712;28;20582;-67
2023/11/23 04:59:18;;;;;;;10.30;4.23;;;;;;;3.07;100.00;97239.09;5037193;28;20263;-69
2023/11/23 05:01:44;;;;;;;11.77;4.60;;;;;;;2.81;100.00;97238.41;5037062;28;20230;-69
2023/11/23 05:04:11;;;;;;;11.67;5.27;;;;;;;2.81;100.00;97223.59;5036528;28;20205;-69
2023/11/23 05:06:38;;;;;;;9.37;4.37;;;;;;;2.78;100.00;97220.41;5035892;28;20705;-69
2023/11/23 05:09:04;;;;;;;10.60;4.30;;;;;;;2.39;100.00;97224.91;5037530;28;20201;-69
2023/11/23 05:11:31;;;;;;;12.47;4.77;;;;;;;2.69;100.00;97223.66;5036147;28;20210;-68
2023/11/23 05:13:57;;;;;;;9.90;3.93;;;;;;;2.64;100.00;97231.75;5037040;28;20204;-68
2023/11/23 05:16:25;;;;;;;10.03;4.80;;;;;;;2.76;100.00;97233.53;5036555;28;20249;-68
2023/11/23 05:18:52;;;;;;;13.27;4.90;;;;;;;2.65;100.00;97233.44;5037069;28;20199;-68
2023/11/23 05:21:18;;;;;;;10.77;4.60;;;;;;;2.49;100.00;97231.97;5036190;28;20224;-68
2023/11/23 05:23:44;;;;;;;9.60;4.63;;;;;;;2.60;100.00;97229.47;5037103;28;20608;-68
2023/11/23 05:26:11;;;;;;;9.90;4.43;;;;;;;2.48;100.00;97227.69;5036751;28;20227;-68
2023/11/23 05:28:37;;;;;;;11.63;4.93;;;;;;;2.67;100.00;97228.97;5035931;28;20203;-68
2023/11/23 05:31:04;;;;;;;12.97;4.93;;;;;;;2.58;100.00;97236.53;5036473;28;20209;-68
2023/11/23 05:33:32;;;;;;;9.67;4.90;;;;;;;2.64;100.00;97226.53;5036706;28;20201;-69
2023/11/23 05:35:58;;;;;;;9.60;4.83;;;;;;;2.58;100.00;97234.78;5036343;28;20304;-69
2023/11/23 05:38:25;;;;;;;10.50;3.90;;;;;;;2.73;100.00;97236.31;5036180;28;20202;-71
2023/11/23 05:40:52;;;;;;;10.80;4.50;;;;;;;2.64;100.00;97228.34;5036741;28;20987;-70
2023/11/23 05:43:19;;;;;;;10.10;4.47;;;;;;;2.64;100.00;97228.34;5036299;28;20212;-68
2023/11/23 05:45:46;;;;;;;18.03;6.63;;;;;;;2.70;100.00;97236.53;5035278;28;20222;-68
2023/11/23 05:48:12;;;;;;;36.07;12.50;;;;;;;2.74;100.00;97238.00;5036798;28;20201;-68
2023/11/23 05:50:40;;;;;;;38.93;12.17;;;;;;;2.85;100.00;97242.44;5036477;28;20213;-68
2023/11/23 05:53:07;;;;;;;82.37;22.50;;;;;;;2.70;100.00;97241.75;5035902;28;20229;-68
2023/11/23 05:55:33;;;;;;;63.83;18.00;;;;;;;2.65;100.00;97233.44;5035487;28;20223;-68
2023/11/23 05:58:00;;;;;;;67.43;20.00;;;;;;;2.69;100.00;97240.06;5037001;28;20208;-68
2023/11/23 06:00:27;;;;;;;104.60;25.50;;;;;;;2.79;100.00;97241.13;5035523;28;20206;-68
2023/11/23 06:02:53;;;;;;;67.47;18.73;;;;;;;2.82;100.00;97235.69;5035577;28;20690;-68
2023/11/23 06:05:20;;;;;;;58.63;16.73;;;;;;;2.81;100.00;97236.63;5036410;28;20237;-68
2023/11/23 06:07:47;;;;;;;53.20;15.10;;;;;;;2.92;100.00;97238.50;5036170;28;20240;-68
2023/11/23 06:10:15;;;;;;;50.60;15.23;;;;;;;2.86;100.00;97242.34;5035472;28;20210;-68
2023/11/23 06:12:41;;;;;;;47.67;12.40;;;;;;;2.74;100.00;97245.81;5036281;28;20210;-68
2023/11/23 06:15:09;;;;;;;50.90;13.77;;;;;;;2.91;100.00;97250.66;5036156;28;20236;-68
2023/11/23 06:17:35;;;;;;;32.43;10.83;;;;;;;2.85;100.00;97242.44;5034956;28;20692;-68
2023/11/23 06:20:03;;;;;;;15.97;6.50;;;;;;;2.86;100.00;97246.72;5036515;28;20198;-68
2023/11/23 06:22:30;;;;;;;26.10;9.13;;;;;;;2.82;100.00;97240.06;5035493;28;20324;-68
2023/11/23 06:24:58;;;;;;;113.03;27.90;;;;;;;2.85;100.00;97240.69;5035526;28;21190;-68
2023/11/23 06:27:24;;;;;;;99.20;27.93;;;;;;;2.76;100.00;97246.53;5035274;28;20214;-68
2023/11/23 06:29:52;;;;;;;62.43;19.60;;;;;;;2.58;100.00;97241.75;5036019;28;20209;-68
2023/11/23 06:32:19;;;;;;;34.67;11.00;;;;;;;2.71;100.00;97238.22;5035402;28;20214;-70
2023/11/23 06:34:45;;;;;;;24.97;8.10;;;;;;;2.60;100.00;97243.31;5035722;28;20227;-69
2023/11/23 06:37:12;;;;;;;12.40;5.13;;;;;;;2.62;100.00;97248.41;5035519;28;20202;-68
2023/11/23 06:39:38;;;;;;;11.07;5.10;;;;;;;2.45;100.00;97254.75;5036830;28;20207;-68
2023/11/23 06:42:06;;;;;;;12.23;5.37;;;;;;;2.69;100.00;97247.06;5039856;28;20232;-69
2023/11/23 06:44:33;;;;;;;9.83;5.10;;;;;;;2.58;100.00;97246.94;5039280;28;20230;-67
2023/11/23 06:47:00;;;;;;;13.23;5.13;;;;;;;2.58;100.00;97240.00;5038983;28;20548;-68
2023/11/23 06:49:27;;;;;;;10.43;5.00;;;;;;;2.57;100.00;97251.34;5039541;28;20352;-68
2023/11/23 06:51:55;;;;;;;10.93;4.90;;;;;;;2.62;100.00;97244.06;5039509;28;20190;-68
2023/11/23 06:54:21;;;;;;;11.57;4.57;;;;;;;2.64;100.00;97246.53;5039070;28;20733;-68
2023/11/23 06:56:48;;;;;;;12.77;5.00;;;;;;;2.67;100.00;97254.97;5037881;28;20208;-68
2023/11/23 06:59:15;;;;;;;9.60;4.73;;;;;;;2.74;100.00;97258.00;5037512;28;20203;-68
2023/11/23 07:01:42;;;;;;;10.50;4.30;;;;;;;2.71;100.00;97266.84;5037788;28;20248;-68
2023/11/23 07:04:08;;;;;;;10.73;4.43;;;;;;;2.81;100.00;97261.81;5037591;28;20297;-67
2023/11/23 07:06:35;;;;;;;10.33;4.33;;;;;;;2.89;100.00;97262.13;5037201;28;20233;-67
2023/11/23 07:09:03;;;;;;;13.87;5.47;;;;;;;2.86;100.00;97263.16;5038640;28;20201;-68
2023/11/23 07:11:29;;;;;;;12.30;5.27;;;;;;;2.79;100.00;97272.34;5038055;28;20193;-70
2023/11/23 07:13:56;;;;;;;12.20;5.33;;;;;;;2.88;100.00;97266.50;5037719;28;20213;-67
2023/11/23 07:16:23;;;;;;;10.27;4.50;;;;;;;3.05;100.00;97271.38;5037432;28;20708;-68
2023/11/23 07:18:50;;;;;;;9.97;5.03;;;;;;;2.61;100.00;97263.19;5038207;28;20207;-68
2023/11/23 07:21:16;;;;;;;9.33;4.33;;;;;;;2.84;100.00;97270.25;5038177;28;20221;-68
2023/11/23 07:23:43;;;;;;;11.70;4.50;;;;;;;2.92;100.00;97254.94;5038291;28;20212;-70
2023/11/23 07:26:10;;;;;;;12.40;4.60;;;;;;;2.98;100.00;97251.91;5037926;28;20222;-69
2023/11/23 07:28:36;;;;;;;8.93;4.20;;;;;;;2.80;100.00;97257.56;5038717;28;20248;-68
2023/11/23 07:31:03;;;;;;;9.20;4.53;;;;;;;3.01;100.00;97255.13;5038019;28;20201;-69
2023/11/23 07:33:34;;;;;;;9.37;4.07;;;;;;;3.21;100.00;97244.16;5038603;28;20932;-70
2023/11/23 07:36:02;;;;;;;13.57;4.83;;;;;;;2.87;100.00;97238.81;5038310;28;20220;-69
2023/11/23 07:38:28;;;;;;;13.93;5.27;;;;;;;2.90;100.00;97235.97;5038543;28;20206;-70
2023/11/23 07:40:56;;;;;;;11.33;5.10;;;;;;;2.84;100.00;97235.56;5037953;28;20585;-68
2023/11/23 07:43:23;;;;;;;10.83;4.63;;;;;;;3.02;100.00;97232.53;5038372;28;20209;-69
2023/11/23 07:45:50;;;;;;;11.00;4.07;;;;;;;3.06;100.00;97234.00;5037432;28;20229;-70
2023/11/23 07:48:17;;;;;;;7.90;3.97;;;;;;;2.88;100.00;97240.47;5038478;28;20209;-68
2023/11/23 07:50:45;;;;;;;10.33;4.93;;;;;;;2.99;100.00;97250.97;5037678;28;20201;-68
2023/11/23 07:53:12;;;;;;;12.00;4.90;;;;;;;2.94;100.00;97260.88;5038126;28;20981;-67
2023/11/23 07:55:38;;;;;;;11.63;5.13;;;;;;;3.05;100.00;97263.56;5037214;28;20343;-67
2023/11/23 07:58:05;;;;;;;10.83;4.97;;;;;;;3.05;100.00;97258.34;5038891;28;20209;-70
2023/11/23 08:00:31;;;;;;;8.33;3.50;;;;;;;3.02;100.00;97258.56;5037892;28;20271;-68
2023/11/23 08:02:58;;;;;;;8.63;4.47;;;;;;;3.10;100.00;97245.84;5037584;28;20225;-67
2023/11/23 08:05:25;;;;;;;10.07;4.97;;;;;;;3.04;100.00;97248.88;5036900;28;20313;-68
2023/11/23 08:07:53;;;;;;;9.87;4.40;;;;;;;3.18;100.00;97233.13;5037417;28;20207;-67
2023/11/23 08:10:20;;;;;;;12.83;4.83;;;;;;;3.12;100.00;97239.59;5037159;28;20686;-67
2023/11/23 08:12:46;;;;;;;10.73;4.63;;;;;;;3.27;100.00;97232.47;5036472;28;20213;-69
2023/11/23 08:15:13;;;;;;;11.87;4.87;;;;;;;3.40;100.00;97238.47;5036899;28;20795;-68
2023/11/23 08:17:40;;;;;;;10.97;5.03;;;;;;;3.21;100.00;97240.72;5036756;28;20207;-68
2023/11/23 08:20:09;;;;;;;10.43;4.77;;;;;;;3.40;100.00;97241.91;5036834;28;20695;-69
2023/11/23 08:22:36;;;;;;;11.03;4.80;;;;;;;3.24;100.00;97258.72;5036029;28;20228;-68
2023/11/23 08:25:05;;;;;;;11.60;5.20;;;;;;;3.46;100.00;97266.69;5036910;28;21083;-68
2023/11/23 08:27:31;;;;;;;10.77;5.00;;;;;;;3.50;100.00;97260.31;5036278;28;20205;-66
2023/11/23 08:29:58;;;;;;;12.47;4.40;;;;;;;3.37;100.00;97259.53;5033836;28;20713;-67
2023/11/23 08:32:25;;;;;;;12.40;4.90;;;;;;;3.58;100.00;97252.78;5034858;28;20240;-68
2023/11/23 08:34:52;;;;;;;11.10;4.60;;;;;;;3.72;100.00;97256.06;5035651;28;20744;-68
2023/11/23 08:37:18;;;;;;;10.10;4.33;;;;;;;3.59;100.00;97257.91;5035207;28;20335;-67
2023/11/23 08:39:46;;;;;;;13.63;4.60;;;;;;;3.38;100.00;97253.38;5035493;28;20198;-69
2023/11/23 08:42:15;;;;;;;10.03;4.17;;;;;;;3.88;100.00;97254.84;5035213;28;20368;-67
2023/11/23 08:44:43;;;;;;;10.87;4.37;;;;;;;3.89;100.00;97256.47;5036472;28;20227;-68
2023/11/23 08:47:09;;;;;;;14.87;4.93;;;;;;;3.77;100.00;97254.78;5036011;28;20202;-68
2023/11/23 08:49:36;;;;;;;9.87;4.00;;;;;;;3.59;100.00;97260.50;5035377;28;20215;-68
2023/11/23 08:52:02;;;;;;;11.20;5.03;;;;;;;3.84;100.00;97262.97;5035371;28;20203;-68
2023/11/23 08:54:29;;;;;;;11.77;4.80;;;;;;;3.99;100.00;97265.31;5036611;28;20231;-68
2023/11/23 08:56:56;;;;;;;10.10;4.13;;;;;;;3.96;100.00;97262.94;5033504;28;20688;-67
2023/11/23 08:59:24;;;;;;;10.83;3.73;;;;;;;4.02;100.00;97270.31;5034965;28;20202;-67
2023/11/23 09:01:52;;;;;;;9.23;4.60;;;;;;;4.03;100.00;97271.94;5035152;28;20793;-68
2023/11/23 09:04:19;;;;;;;8.43;3.87;;;;;;;4.05;100.00;97280.50;5034871;28;20197;-68
2023/11/23 09:06:45;;;;;;;9.70;4.10;;;;;;;4.07;100.00;97283.81;5034275;28;20212;-67
2023/11/23 09:09:12;;;;;;;10.30;3.73;;;;;;;4.29;100.00;97278.72;5034908;28;20203;-67
2023/11/23 09:11:39;;;;;;;6.50;2.73;;;;;;;4.36;100.00;97272.06;5034187;28;20203;-68
2023/11/23 09:14:06;;;;;;;8.97;3.70;;;;;;;4.47;100.00;97254.66;5034977;28;20206;-68
2023/11/23 09:16:35;;;;;;;13.00;5.93;;;;;;;4.69;100.00;97256.50;5035121;28;20218;-68
2023/11/23 09:19:02;;;;;;;10.43;4.03;;;;;;;4.65;100.00;97258.50;5035214;28;20202;-68
2023/11/23 09:21:28;;;;;;;9.07;4.47;;;;;;;4.74;100.00;97264.81;5033890;28;20580;-68
2023/11/23 09:23:55;;;;;;;9.93;3.60;;;;;;;4.74;100.00;97254.38;5033851;28;20266;-68
2023/11/23 09:26:22;;;;;;;8.13;3.77;;;;;;;4.83;100.00;97246.66;5034752;28;20228;-68
2023/11/23 09:28:48;;;;;;;7.93;3.50;;;;;;;4.89;100.00;97254.00;5034694;28;20203;-68
2023/11/23 09:31:17;;;;;;;7.50;3.57;;;;;;;4.97;100.00;97239.41;5035106;28;20208;-68
2023/11/23 09:33:45;;;;;;;9.13;4.13;;;;;;;5.30;100.00;97242.00;5033632;28;20605;-67
2023/11/23 09:36:13;;;;;;;6.27;3.53;;;;;;;5.22;100.00;97239.16;5034426;28;20219;-68
2023/11/23 09:38:39;;;;;;;9.40;3.90;;;;;;;5.20;100.00;97240.22;5034598;28;20702;-67
2023/11/23 09:41:11;;;;;;;9.37;4.03;;;;;;;5.31;100.00;97241.06;5034977;28;20211;-67
2023/11/23 09:43:38;;;;;;;8.50;3.93;;;;;;;5.33;100.00;97228.69;5034978;28;20231;-67
2023/11/23 09:46:06;;;;;;;8.30;3.33;;;;;;;5.38;100.00;97225.72;5033223;28;20314;-67
2023/11/23 09:48:38;;;;;;;8.03;3.80;;;;;;;5.76;100.00;97211.25;5032981;28;20204;-67
2023/11/23 09:51:09;;;;;;;9.43;4.10;;;;;;;5.84;100.00;97208.84;5033139;28;21098;-67
2023/11/23 09:53:37;;;;;;;7.90;3.17;;;;;;;5.88;100.00;97205.03;5034562;28;21603;-67
2023/11/23 09:56:04;;;;;;;9.00;3.70;;;;;;;5.72;100.00;97204.59;5034128;28;20217;-69
2023/11/23 09:58:32;;;;;;;7.10;3.50;;;;;;;5.60;100.00;97200.34;5034009;28;20216;-69
2023/11/23 10:01:02;;;;;;;7.43;3.20;;;;;;;5.80;100.00;97202.22;5031577;28;20292;-68
2023/11/23 10:03:32;;;;;;;8.40;3.63;;;;;;;5.94;100.00;97199.31;5030732;28;20217;-68
2023/11/23 10:05:58;;;;;;;7.77;3.53;;;;;;;5.81;100.00;97198.66;5032198;28;20224;-68
2023/11/23 10:08:27;;;;;;;7.43;3.20;;;;;;;6.02;100.00;97191.66;5032745;28;20968;-68
2023/11/23 10:10:53;;;;;;;12.53;4.37;;;;;;;6.11;100.00;97187.31;5033940;28;20292;-69
2023/11/23 10:13:20;;;;;;;10.73;4.30;;;;;;;6.09;100.00;97173.53;5033442;28;20556;-68
2023/11/23 10:15:48;;;;;;;8.63;4.40;;;;;;;6.24;100.00;97166.19;5031919;28;20225;-67
2023/11/23 10:18:15;;;;;;;10.40;3.47;;;;;;;6.13;100.00;97154.00;5033384;28;20208;-67
2023/11/23 10:20:45;;;;;;;10.23;3.73;;;;;;;6.62;100.00;97138.44;5034290;28;20204;-67
2023/11/23 10:23:12;;;;;;;8.90;4.03;;;;;;;6.62;100.00;97141.06;5032772;28;20236;-67
2023/11/23 10:25:41;;;;;;;10.47;4.10;;;;;;;6.67;100.00;97131.84;5031987;28;20216;-67
2023/11/23 10:28:09;;;;;;;9.87;4.43;;;;;;;6.62;100.00;97116.63;5033460;28;20201;-67
2023/11/23 10:30:37;;;;;;;10.67;3.87;;;;;;;6.63;100.00;97110.44;5032652;28;20201;-67
2023/11/23 10:33:05;;;;;;;6.60;3.70;;;;;;;6.42;100.00;97102.66;5033408;28;20197;-67
2023/11/23 10:35:36;;;;;;;8.53;3.87;;;;;;;6.69;100.00;97092.41;5032537;28;20232;-67
2023/11/23 10:38:04;;;;;;;12.87;5.20;;;;;;;6.84;100.00;97080.63;5033471;28;20205;-67
2023/11/23 10:40:30;;;;;;;6.97;3.20;;;;;;;6.70;100.00;97086.22;5032983;28;20202;-67
2023/11/23 10:43:00;;;;;;;8.87;3.20;;;;;;;7.11;100.00;97088.66;5033323;28;20765;-67
2023/11/23 10:45:27;;;;;;;9.13;4.17;;;;;;;7.19;100.00;97079.16;5033283;28;20229;-67
2023/11/23 10:47:55;;;;;;;7.53;3.43;;;;;;;7.21;100.00;97074.63;5033564;28;21060;-67
2023/11/23 10:50:22;;;;;;;7.63;3.53;;;;;;;6.90;100.00;97073.03;5034064;28;20213;-67
2023/11/23 10:52:49;;;;;;;6.80;2.90;;;;;;;6.88;100.00;97063.66;5034045;28;20284;-67
2023/11/23 10:55:15;;;;;;;8.63;3.33;;;;;;;7.01;100.00;97064.22;5033765;28;20236;-66
2023/11/23 10:57:46;;;;;;;6.40;3.40;;;;;;;7.33;100.00;97056.00;5033900;28;20229;-68
2023/11/23 11:00:17;;;;;;;8.73;3.67;;;;;;;7.38;100.00;97052.94;5034434;28;20205;-68
2023/11/23 11:02:44;;;;;;;9.83;4.13;;;;;;;7.16;100.00;97047.97;5033501;28;20374;-67
2023/11/23 11:05:23;;;;;;;9.83;4.07;;;;;;;7.43;100.00;97030.63;5033327;28;20229;-69
2023/11/23 11:08:01;;;;;;;9.43;4.43;;;;;;;7.47;100.00;97034.63;5033921;28;20201;-69
2023/11/23 11:10:28;;;;;;;6.73;3.00;;;;;;;7.29;100.00;97041.50;5033798;28;21087;-67
2023/11/23 11:13:05;;;;;;;6.60;3.20;;;;;;;7.35;100.00;97033.06;5033006;28;20495;-68
2023/11/23 11:15:34;;;;;;;7.70;3.17;;;;;;;7.20;100.00;97019.72;5034603;28;20777;-67
2023/11/23 11:18:06;;;;;;;8.20;3.63;;;;;;;7.43;100.00;97030.63;5033575;28;20263;-67
2023/11/23 11:20:34;;;;;;;7.10;3.53;;;;;;;7.43;100.00;97035.88;5033563;28;20767;-67
2023/11/23 11:23:00;;;;;;;6.23;2.93;;;;;;;6.94;100.00;97029.06;5033284;28;20728;-67
2023/11/23 11:25:38;;;;;;;8.77;3.17;;;;;;;7.62;100.00;97024.50;5033502;28;20221;-69